sensor_id;sensor_type;location;lat;lon;timestamp;P1;durP1;ratioP1;P2;durP2;ratioP2
74459;SDS011;62902;48.854;9.292;2023-02-14T00:00:26;950.63;;;643.20;;
74459;SDS011;62902;48.854;9.292;2023-02-14T00:02:52;951.90;;;642.03;;
74459;SDS011;62902;48.854;9.292;2023-02-14T00:05:19;953.83;;;642.90;;
74459;SDS011;62902;48.854;9.292;2023-02-14T00:07:46;958.00;;;646.63;;
74459;SDS011;62902;48.854;9.292;2023-02-14T00:10:13;958.58;;;646.83;;
74459;SDS011;62902;48.854;9.292;2023-02-14T00:12:40;960.92;;;650.88;;
74459;SDS011;62902;48.854;9.292;2023-02-14T00:15:06;950.23;;;642.87;;
74459;SDS011;62902;48.854;9.292;2023-02-14T00:17:51;959.22;;;647.45;;
74459;SDS011;62902;48.854;9.292;2023-02-14T00:20:22;960.20;;;648.25;;
74459;SDS011;62902;48.854;9.292;2023-02-14T00:22:49;956.60;;;647.53;;
74459;SDS011;62902;48.854;9.292;2023-02-14T00:25:16;961.45;;;645.90;;
74459;SDS011;62902;48.854;9.292;2023-02-14T00:27:42;954.72;;;641.45;;
74459;SDS011;62902;48.854;9.292;2023-02-14T00:30:10;951.83;;;643.17;;
74459;SDS011;62902;48.854;9.292;2023-02-14T00:32:38;960.13;;;647.33;;
74459;SDS011;62902;48.854;9.292;2023-02-14T00:35:05;961.00;;;651.40;;
74459;SDS011;62902;48.854;9.292;2023-02-14T00:37:33;959.22;;;650.08;;
74459;SDS011;62902;48.854;9.292;2023-02-14T00:39:59;955.45;;;645.90;;
74459;SDS011;62902;48.854;9.292;2023-02-14T00:42:26;956.28;;;648.38;;
74459;SDS011;62902;48.854;9.292;2023-02-14T00:44:53;959.70;;;651.15;;
74459;SDS011;62902;48.854;9.292;2023-02-14T00:47:19;954.22;;;647.78;;
74459;SDS011;62902;48.854;9.292;2023-02-14T00:49:46;957.65;;;649.80;;
74459;SDS011;62902;48.854;9.292;2023-02-14T00:52:12;959.22;;;649.88;;
74459;SDS011;62902;48.854;9.292;2023-02-14T00:54:39;956.83;;;650.13;;
74459;SDS011;62902;48.854;9.292;2023-02-14T00:57:05;955.38;;;648.58;;
74459;SDS011;62902;48.854;9.292;2023-02-14T00:59:34;956.60;;;650.57;;
74459;SDS011;62902;48.854;9.292;2023-02-14T01:02:02;955.60;;;647.22;;
74459;SDS011;62902;48.854;9.292;2023-02-14T01:04:28;954.42;;;645.05;;
74459;SDS011;62902;48.854;9.292;2023-02-14T01:06:55;953.55;;;644.42;;
74459;SDS011;62902;48.854;9.292;2023-02-14T01:09:22;951.73;;;643.47;;
74459;SDS011;62902;48.854;9.292;2023-02-14T01:11:48;955.17;;;647.45;;
74459;SDS011;62902;48.854;9.292;2023-02-14T01:14:15;949.00;;;643.63;;
74459;SDS011;62902;48.854;9.292;2023-02-14T01:16:41;952.73;;;645.30;;
74459;SDS011;62902;48.854;9.292;2023-02-14T01:19:08;952.78;;;647.67;;
74459;SDS011;62902;48.854;9.292;2023-02-14T01:21:35;948.60;;;643.30;;
74459;SDS011;62902;48.854;9.292;2023-02-14T01:24:03;952.78;;;645.97;;
74459;SDS011;62902;48.854;9.292;2023-02-14T01:26:31;945.63;;;638.30;;
74459;SDS011;62902;48.854;9.292;2023-02-14T01:29:00;950.85;;;642.97;;
74459;SDS011;62902;48.854;9.292;2023-02-14T01:31:28;948.33;;;640.60;;
74459;SDS011;62902;48.854;9.292;2023-02-14T01:33:57;952.17;;;644.57;;
74459;SDS011;62902;48.854;9.292;2023-02-14T01:36:32;947.03;;;640.33;;
74459;SDS011;62902;48.854;9.292;2023-02-14T01:39:02;942.72;;;636.17;;
74459;SDS011;62902;48.854;9.292;2023-02-14T01:41:31;937.53;;;632.87;;
74459;SDS011;62902;48.854;9.292;2023-02-14T01:46:31;944.90;;;640.28;;
74459;SDS011;62902;48.854;9.292;2023-02-14T01:49:02;943.78;;;641.13;;
74459;SDS011;62902;48.854;9.292;2023-02-14T01:51:30;936.53;;;629.00;;
74459;SDS011;62902;48.854;9.292;2023-02-14T01:53:58;940.80;;;634.92;;
74459;SDS011;62902;48.854;9.292;2023-02-14T01:56:30;941.90;;;636.10;;
74459;SDS011;62902;48.854;9.292;2023-02-14T01:59:03;941.08;;;639.25;;
74459;SDS011;62902;48.854;9.292;2023-02-14T02:01:32;941.97;;;637.43;;
74459;SDS011;62902;48.854;9.292;2023-02-14T02:04:06;939.20;;;635.28;;
74459;SDS011;62902;48.854;9.292;2023-02-14T02:06:39;939.33;;;634.43;;
74459;SDS011;62902;48.854;9.292;2023-02-14T02:09:14;944.65;;;638.80;;
74459;SDS011;62902;48.854;9.292;2023-02-14T02:11:41;938.40;;;634.47;;
74459;SDS011;62902;48.854;9.292;2023-02-14T02:14:15;939.95;;;634.72;;
74459;SDS011;62902;48.854;9.292;2023-02-14T02:20:02;939.75;;;636.92;;
74459;SDS011;62902;48.854;9.292;2023-02-14T02:31:18;935.38;;;634.45;;
74459;SDS011;62902;48.854;9.292;2023-02-14T02:39:37;932.35;;;638.55;;
74459;SDS011;62902;48.854;9.292;2023-02-14T02:45:05;936.13;;;638.50;;
74459;SDS011;62902;48.854;9.292;2023-02-14T02:50:32;932.40;;;635.08;;
74459;SDS011;62902;48.854;9.292;2023-02-14T02:58:45;926.13;;;635.17;;
74459;SDS011;62902;48.854;9.292;2023-02-14T03:01:16;926.30;;;637.38;;
74459;SDS011;62902;48.854;9.292;2023-02-14T03:03:48;929.42;;;638.15;;
74459;SDS011;62902;48.854;9.292;2023-02-14T03:06:36;932.03;;;640.38;;
74459;SDS011;62902;48.854;9.292;2023-02-14T03:09:48;929.60;;;639.45;;
74459;SDS011;62902;48.854;9.292;2023-02-14T03:14:45;924.97;;;634.72;;
74459;SDS011;62902;48.854;9.292;2023-02-14T03:18:00;928.67;;;637.33;;
74459;SDS011;62902;48.854;9.292;2023-02-14T03:23:05;926.88;;;639.03;;
74459;SDS011;62902;48.854;9.292;2023-02-14T03:25:38;926.10;;;637.50;;
74459;SDS011;62902;48.854;9.292;2023-02-14T03:31:16;929.67;;;637.90;;
74459;SDS011;62902;48.854;9.292;2023-02-14T03:34:06;927.07;;;636.47;;
74459;SDS011;62902;48.854;9.292;2023-02-14T03:36:53;920.97;;;631.58;;
74459;SDS011;62902;48.854;9.292;2023-02-14T03:39:23;925.50;;;636.25;;
74459;SDS011;62902;48.854;9.292;2023-02-14T03:41:56;927.28;;;639.33;;
74459;SDS011;62902;48.854;9.292;2023-02-14T03:44:31;926.80;;;638.00;;
74459;SDS011;62902;48.854;9.292;2023-02-14T03:47:03;929.45;;;639.80;;
74459;SDS011;62902;48.854;9.292;2023-02-14T03:49:34;922.03;;;634.27;;
74459;SDS011;62902;48.854;9.292;2023-02-14T03:52:04;922.60;;;635.97;;
74459;SDS011;62902;48.854;9.292;2023-02-14T03:54:32;924.93;;;638.10;;
74459;SDS011;62902;48.854;9.292;2023-02-14T03:57:06;926.07;;;639.33;;
74459;SDS011;62902;48.854;9.292;2023-02-14T03:59:34;925.20;;;640.58;;
74459;SDS011;62902;48.854;9.292;2023-02-14T04:04:35;920.53;;;636.95;;
74459;SDS011;62902;48.854;9.292;2023-02-14T04:07:16;921.80;;;636.45;;
74459;SDS011;62902;48.854;9.292;2023-02-14T04:09:45;923.72;;;639.00;;
74459;SDS011;62902;48.854;9.292;2023-02-14T04:12:12;923.50;;;639.23;;
74459;SDS011;62902;48.854;9.292;2023-02-14T04:14:39;917.53;;;634.55;;
74459;SDS011;62902;48.854;9.292;2023-02-14T04:17:06;919.85;;;638.65;;
74459;SDS011;62902;48.854;9.292;2023-02-14T04:19:51;912.38;;;633.53;;
74459;SDS011;62902;48.854;9.292;2023-02-14T04:22:18;926.93;;;648.83;;
74459;SDS011;62902;48.854;9.292;2023-02-14T04:24:44;913.38;;;631.90;;
74459;SDS011;62902;48.854;9.292;2023-02-14T04:27:11;914.43;;;637.97;;
74459;SDS011;62902;48.854;9.292;2023-02-14T04:29:38;925.53;;;644.70;;
74459;SDS011;62902;48.854;9.292;2023-02-14T04:32:13;915.92;;;636.85;;
74459;SDS011;62902;48.854;9.292;2023-02-14T04:34:42;919.43;;;641.23;;
74459;SDS011;62902;48.854;9.292;2023-02-14T04:37:09;920.58;;;642.95;;
74459;SDS011;62902;48.854;9.292;2023-02-14T04:39:36;915.10;;;637.92;;
74459;SDS011;62902;48.854;9.292;2023-02-14T04:42:03;920.42;;;641.75;;
74459;SDS011;62902;48.854;9.292;2023-02-14T04:44:30;920.83;;;643.30;;
74459;SDS011;62902;48.854;9.292;2023-02-14T04:46:59;922.13;;;643.03;;
74459;SDS011;62902;48.854;9.292;2023-02-14T04:49:26;917.33;;;643.20;;
74459;SDS011;62902;48.854;9.292;2023-02-14T04:51:52;915.10;;;639.20;;
74459;SDS011;62902;48.854;9.292;2023-02-14T04:54:19;915.73;;;639.03;;
74459;SDS011;62902;48.854;9.292;2023-02-14T04:56:45;916.22;;;641.20;;
74459;SDS011;62902;48.854;9.292;2023-02-14T04:59:12;915.67;;;638.10;;
74459;SDS011;62902;48.854;9.292;2023-02-14T05:01:39;914.15;;;635.17;;
74459;SDS011;62902;48.854;9.292;2023-02-14T05:04:07;915.20;;;640.67;;
74459;SDS011;62902;48.854;9.292;2023-02-14T05:06:34;911.28;;;631.42;;
74459;SDS011;62902;48.854;9.292;2023-02-14T05:09:01;911.30;;;629.08;;
74459;SDS011;62902;48.854;9.292;2023-02-14T05:11:28;907.35;;;625.92;;
74459;SDS011;62902;48.854;9.292;2023-02-14T05:13:55;913.58;;;629.10;;
74459;SDS011;62902;48.854;9.292;2023-02-14T05:16:21;909.22;;;628.42;;
74459;SDS011;62902;48.854;9.292;2023-02-14T05:18:48;911.50;;;625.22;;
74459;SDS011;62902;48.854;9.292;2023-02-14T05:21:15;905.47;;;624.30;;
74459;SDS011;62902;48.854;9.292;2023-02-14T05:23:41;909.35;;;628.03;;
74459;SDS011;62902;48.854;9.292;2023-02-14T05:26:08;906.22;;;625.80;;
74459;SDS011;62902;48.854;9.292;2023-02-14T05:28:35;908.30;;;627.80;;
74459;SDS011;62902;48.854;9.292;2023-02-14T05:31:01;912.57;;;634.37;;
74459;SDS011;62902;48.854;9.292;2023-02-14T05:33:29;907.97;;;631.07;;
74459;SDS011;62902;48.854;9.292;2023-02-14T05:35:57;905.80;;;629.60;;
74459;SDS011;62902;48.854;9.292;2023-02-14T05:38:24;902.53;;;627.15;;
74459;SDS011;62902;48.854;9.292;2023-02-14T05:40:51;906.53;;;629.22;;
74459;SDS011;62902;48.854;9.292;2023-02-14T05:43:17;903.40;;;630.88;;
74459;SDS011;62902;48.854;9.292;2023-02-14T05:45:44;902.95;;;629.47;;
74459;SDS011;62902;48.854;9.292;2023-02-14T05:48:11;904.53;;;632.25;;
74459;SDS011;62902;48.854;9.292;2023-02-14T05:50:38;904.05;;;633.50;;
74459;SDS011;62902;48.854;9.292;2023-02-14T05:53:05;907.33;;;630.95;;
74459;SDS011;62902;48.854;9.292;2023-02-14T05:55:32;901.28;;;631.33;;
74459;SDS011;62902;48.854;9.292;2023-02-14T05:57:58;901.27;;;630.83;;
74459;SDS011;62902;48.854;9.292;2023-02-14T06:00:25;900.25;;;630.10;;
74459;SDS011;62902;48.854;9.292;2023-02-14T06:02:52;904.15;;;633.10;;
74459;SDS011;62902;48.854;9.292;2023-02-14T06:05:19;906.37;;;633.63;;
74459;SDS011;62902;48.854;9.292;2023-02-14T06:07:49;902.78;;;630.53;;
74459;SDS011;62902;48.854;9.292;2023-02-14T06:10:20;902.85;;;633.20;;
74459;SDS011;62902;48.854;9.292;2023-02-14T06:12:48;905.35;;;634.38;;
74459;SDS011;62902;48.854;9.292;2023-02-14T06:15:15;903.92;;;633.30;;
74459;SDS011;62902;48.854;9.292;2023-02-14T06:17:42;903.20;;;632.25;;
74459;SDS011;62902;48.854;9.292;2023-02-14T06:20:09;906.63;;;634.85;;
74459;SDS011;62902;48.854;9.292;2023-02-14T06:22:36;905.85;;;635.70;;
74459;SDS011;62902;48.854;9.292;2023-02-14T06:25:03;907.10;;;634.35;;
74459;SDS011;62902;48.854;9.292;2023-02-14T06:27:31;904.00;;;632.58;;
74459;SDS011;62902;48.854;9.292;2023-02-14T06:29:58;904.78;;;630.75;;
74459;SDS011;62902;48.854;9.292;2023-02-14T06:32:24;905.38;;;636.00;;
74459;SDS011;62902;48.854;9.292;2023-02-14T06:34:51;905.45;;;633.28;;
74459;SDS011;62902;48.854;9.292;2023-02-14T06:37:17;904.20;;;632.97;;
74459;SDS011;62902;48.854;9.292;2023-02-14T06:39:45;901.42;;;633.30;;
74459;SDS011;62902;48.854;9.292;2023-02-14T06:42:12;904.67;;;634.30;;
74459;SDS011;62902;48.854;9.292;2023-02-14T06:44:38;903.83;;;631.42;;
74459;SDS011;62902;48.854;9.292;2023-02-14T06:47:05;906.87;;;635.33;;
74459;SDS011;62902;48.854;9.292;2023-02-14T06:49:33;905.07;;;632.20;;
74459;SDS011;62902;48.854;9.292;2023-02-14T06:52:00;905.17;;;631.67;;
74459;SDS011;62902;48.854;9.292;2023-02-14T06:54:26;902.90;;;632.40;;
74459;SDS011;62902;48.854;9.292;2023-02-14T06:56:53;907.80;;;635.75;;
74459;SDS011;62902;48.854;9.292;2023-02-14T06:59:19;906.88;;;633.55;;
74459;SDS011;62902;48.854;9.292;2023-02-14T07:01:46;907.10;;;631.17;;
74459;SDS011;62902;48.854;9.292;2023-02-14T07:04:13;911.50;;;632.80;;
74459;SDS011;62902;48.854;9.292;2023-02-14T07:06:39;907.10;;;630.03;;
74459;SDS011;62902;48.854;9.292;2023-02-14T07:09:06;908.50;;;630.33;;
74459;SDS011;62902;48.854;9.292;2023-02-14T07:11:33;922.33;;;644.13;;
74459;SDS011;62902;48.854;9.292;2023-02-14T07:13:59;913.53;;;634.20;;
74459;SDS011;62902;48.854;9.292;2023-02-14T07:16:26;915.03;;;632.33;;
74459;SDS011;62902;48.854;9.292;2023-02-14T07:18:52;916.83;;;634.65;;
74459;SDS011;62902;48.854;9.292;2023-02-14T07:21:19;921.75;;;634.28;;
74459;SDS011;62902;48.854;9.292;2023-02-14T07:23:45;920.85;;;630.97;;
74459;SDS011;62902;48.854;9.292;2023-02-14T07:26:15;928.13;;;636.73;;
74459;SDS011;62902;48.854;9.292;2023-02-14T07:28:46;930.90;;;637.63;;
74459;SDS011;62902;48.854;9.292;2023-02-14T07:31:17;927.00;;;630.35;;
74459;SDS011;62902;48.854;9.292;2023-02-14T07:33:45;935.50;;;639.97;;
74459;SDS011;62902;48.854;9.292;2023-02-14T07:36:11;935.58;;;635.92;;
74459;SDS011;62902;48.854;9.292;2023-02-14T07:38:38;936.87;;;636.93;;
74459;SDS011;62902;48.854;9.292;2023-02-14T07:41:05;943.58;;;638.83;;
74459;SDS011;62902;48.854;9.292;2023-02-14T07:43:31;944.03;;;642.92;;
74459;SDS011;62902;48.854;9.292;2023-02-14T07:46:00;944.13;;;642.55;;
74459;SDS011;62902;48.854;9.292;2023-02-14T07:48:27;944.70;;;641.47;;
74459;SDS011;62902;48.854;9.292;2023-02-14T07:50:58;948.23;;;643.43;;
74459;SDS011;62902;48.854;9.292;2023-02-14T07:53:25;945.57;;;643.70;;
74459;SDS011;62902;48.854;9.292;2023-02-14T07:55:52;939.08;;;643.78;;
74459;SDS011;62902;48.854;9.292;2023-02-14T07:58:18;929.08;;;640.92;;
74459;SDS011;62902;48.854;9.292;2023-02-14T08:00:45;923.85;;;639.90;;
74459;SDS011;62902;48.854;9.292;2023-02-14T08:03:12;929.30;;;642.05;;
74459;SDS011;62902;48.854;9.292;2023-02-14T08:05:39;927.88;;;638.42;;
74459;SDS011;62902;48.854;9.292;2023-02-14T08:08:06;934.55;;;643.60;;
74459;SDS011;62902;48.854;9.292;2023-02-14T08:10:33;931.08;;;640.47;;
74459;SDS011;62902;48.854;9.292;2023-02-14T08:12:59;933.95;;;640.00;;
74459;SDS011;62902;48.854;9.292;2023-02-14T08:15:27;938.90;;;644.85;;
74459;SDS011;62902;48.854;9.292;2023-02-14T08:18:14;942.57;;;642.57;;
74459;SDS011;62902;48.854;9.292;2023-02-14T08:20:41;942.25;;;644.67;;
74459;SDS011;62902;48.854;9.292;2023-02-14T08:23:07;944.60;;;646.65;;
74459;SDS011;62902;48.854;9.292;2023-02-14T08:25:34;944.83;;;647.55;;
74459;SDS011;62902;48.854;9.292;2023-02-14T08:28:01;947.93;;;645.20;;
74459;SDS011;62902;48.854;9.292;2023-02-14T08:30:28;954.63;;;645.80;;
74459;SDS011;62902;48.854;9.292;2023-02-14T08:32:56;965.72;;;650.60;;
74459;SDS011;62902;48.854;9.292;2023-02-14T08:35:23;958.50;;;651.28;;
74459;SDS011;62902;48.854;9.292;2023-02-14T08:37:51;965.60;;;655.05;;
74459;SDS011;62902;48.854;9.292;2023-02-14T08:40:20;968.08;;;652.47;;
74459;SDS011;62902;48.854;9.292;2023-02-14T08:42:46;975.38;;;651.40;;
74459;SDS011;62902;48.854;9.292;2023-02-14T08:45:13;981.72;;;656.05;;
74459;SDS011;62902;48.854;9.292;2023-02-14T08:47:40;985.55;;;653.03;;
74459;SDS011;62902;48.854;9.292;2023-02-14T08:50:10;994.07;;;654.43;;
74459;SDS011;62902;48.854;9.292;2023-02-14T08:52:38;1009.80;;;660.10;;
74459;SDS011;62902;48.854;9.292;2023-02-14T08:55:06;1021.50;;;662.25;;
74459;SDS011;62902;48.854;9.292;2023-02-14T08:57:32;1042.65;;;665.70;;
74459;SDS011;62902;48.854;9.292;2023-02-14T08:59:59;1075.20;;;670.40;;
74459;SDS011;62902;48.854;9.292;2023-02-14T09:02:26;1081.83;;;669.37;;
74459;SDS011;62902;48.854;9.292;2023-02-14T09:04:53;1094.35;;;672.15;;
74459;SDS011;62902;48.854;9.292;2023-02-14T09:07:19;1109.15;;;673.45;;
74459;SDS011;62902;48.854;9.292;2023-02-14T09:09:46;1118.17;;;673.93;;
74459;SDS011;62902;48.854;9.292;2023-02-14T09:12:12;1135.00;;;682.00;;
74459;SDS011;62902;48.854;9.292;2023-02-14T09:14:40;1125.75;;;670.60;;
74459;SDS011;62902;48.854;9.292;2023-02-14T09:17:12;1115.82;;;666.25;;
74459;SDS011;62902;48.854;9.292;2023-02-14T09:19:40;1121.57;;;669.38;;
74459;SDS011;62902;48.854;9.292;2023-02-14T09:22:07;1108.28;;;667.63;;
74459;SDS011;62902;48.854;9.292;2023-02-14T09:24:35;1107.88;;;670.40;;
74459;SDS011;62902;48.854;9.292;2023-02-14T09:27:03;1103.20;;;668.50;;
74459;SDS011;62902;48.854;9.292;2023-02-14T09:29:30;1094.60;;;663.63;;
74459;SDS011;62902;48.854;9.292;2023-02-14T09:31:58;1098.97;;;666.97;;
74459;SDS011;62902;48.854;9.292;2023-02-14T09:34:26;1101.73;;;667.40;;
74459;SDS011;62902;48.854;9.292;2023-02-14T09:36:53;1110.13;;;672.65;;
74459;SDS011;62902;48.854;9.292;2023-02-14T09:39:38;1111.95;;;671.85;;
74459;SDS011;62902;48.854;9.292;2023-02-14T09:44:52;1156.70;;;689.60;;
74459;SDS011;62902;48.854;9.292;2023-02-14T09:50:21;1177.18;;;679.38;;
74459;SDS011;62902;48.854;9.292;2023-02-14T09:52:50;1189.80;;;679.20;;
74459;SDS011;62902;48.854;9.292;2023-02-14T09:55:19;1200.68;;;674.13;;
74459;SDS011;62902;48.854;9.292;2023-02-14T10:00:38;1254.90;;;686.30;;
74459;SDS011;62902;48.854;9.292;2023-02-14T10:03:17;1237.25;;;679.17;;
74459;SDS011;62902;48.854;9.292;2023-02-14T10:11:04;1277.32;;;684.78;;
74459;SDS011;62902;48.854;9.292;2023-02-14T10:13:36;1282.13;;;684.97;;
74459;SDS011;62902;48.854;9.292;2023-02-14T10:16:22;1285.82;;;681.47;;
74459;SDS011;62902;48.854;9.292;2023-02-14T10:19:06;1286.53;;;682.60;;
74459;SDS011;62902;48.854;9.292;2023-02-14T10:21:39;1286.43;;;685.00;;
74459;SDS011;62902;48.854;9.292;2023-02-14T10:24:27;1282.38;;;684.97;;
74459;SDS011;62902;48.854;9.292;2023-02-14T10:27:00;1264.35;;;685.15;;
74459;SDS011;62902;48.854;9.292;2023-02-14T10:29:36;1245.53;;;684.80;;
74459;SDS011;62902;48.854;9.292;2023-02-14T10:32:03;1243.18;;;685.38;;
74459;SDS011;62902;48.854;9.292;2023-02-14T10:39:58;1260.70;;;692.55;;
74459;SDS011;62902;48.854;9.292;2023-02-14T10:47:50;1278.73;;;688.20;;
74459;SDS011;62902;48.854;9.292;2023-02-14T10:50:24;1284.13;;;689.43;;
74459;SDS011;62902;48.854;9.292;2023-02-14T10:55:51;1279.60;;;688.60;;
74459;SDS011;62902;48.854;9.292;2023-02-14T10:58:22;1277.20;;;685.45;;
74459;SDS011;62902;48.854;9.292;2023-02-14T11:00:58;1284.22;;;693.03;;
74459;SDS011;62902;48.854;9.292;2023-02-14T11:03:28;1276.07;;;690.05;;
74459;SDS011;62902;48.854;9.292;2023-02-14T11:05:55;1278.90;;;693.08;;
74459;SDS011;62902;48.854;9.292;2023-02-14T11:08:31;1280.83;;;694.10;;
74459;SDS011;62902;48.854;9.292;2023-02-14T11:11:10;1306.18;;;695.33;;
74459;SDS011;62902;48.854;9.292;2023-02-14T11:13:43;1318.35;;;691.55;;
74459;SDS011;62902;48.854;9.292;2023-02-14T11:16:10;1328.20;;;692.47;;
74459;SDS011;62902;48.854;9.292;2023-02-14T11:18:39;1321.40;;;691.65;;
74459;SDS011;62902;48.854;9.292;2023-02-14T11:21:10;1318.30;;;691.63;;
74459;SDS011;62902;48.854;9.292;2023-02-14T11:23:43;1326.63;;;690.10;;
74459;SDS011;62902;48.854;9.292;2023-02-14T11:26:29;1343.00;;;689.95;;
74459;SDS011;62902;48.854;9.292;2023-02-14T11:28:58;1363.80;;;693.30;;
74459;SDS011;62902;48.854;9.292;2023-02-14T11:31:33;1370.88;;;687.85;;
74459;SDS011;62902;48.854;9.292;2023-02-14T11:34:02;1370.55;;;693.40;;
74459;SDS011;62902;48.854;9.292;2023-02-14T11:36:30;1369.82;;;694.58;;
74459;SDS011;62902;48.854;9.292;2023-02-14T11:39:02;1365.72;;;690.88;;
74459;SDS011;62902;48.854;9.292;2023-02-14T11:41:48;1365.37;;;699.73;;
74459;SDS011;62902;48.854;9.292;2023-02-14T11:44:21;1357.18;;;695.75;;
74459;SDS011;62902;48.854;9.292;2023-02-14T11:46:49;1349.30;;;699.22;;
74459;SDS011;62902;48.854;9.292;2023-02-14T11:49:40;1340.97;;;697.03;;
74459;SDS011;62902;48.854;9.292;2023-02-14T11:52:09;1331.90;;;691.30;;
74459;SDS011;62902;48.854;9.292;2023-02-14T11:54:40;1326.68;;;694.80;;
74459;SDS011;62902;48.854;9.292;2023-02-14T11:57:18;1313.60;;;691.67;;
74459;SDS011;62902;48.854;9.292;2023-02-14T11:59:46;1314.70;;;695.58;;
74459;SDS011;62902;48.854;9.292;2023-02-14T12:02:23;1297.40;;;694.75;;
74459;SDS011;62902;48.854;9.292;2023-02-14T12:04:52;1271.20;;;688.05;;
74459;SDS011;62902;48.854;9.292;2023-02-14T12:07:31;1264.30;;;686.67;;
74459;SDS011;62902;48.854;9.292;2023-02-14T12:21:06;1249.55;;;691.65;;
74459;SDS011;62902;48.854;9.292;2023-02-14T12:29:11;1243.68;;;686.03;;
74459;SDS011;62902;48.854;9.292;2023-02-14T12:31:43;1240.78;;;689.38;;
74459;SDS011;62902;48.854;9.292;2023-02-14T12:34:12;1238.10;;;690.03;;
74459;SDS011;62902;48.854;9.292;2023-02-14T12:39:57;1240.72;;;692.13;;
74459;SDS011;62902;48.854;9.292;2023-02-14T12:45:07;1242.38;;;687.47;;
74459;SDS011;62902;48.854;9.292;2023-02-14T12:47:55;1242.63;;;688.25;;
74459;SDS011;62902;48.854;9.292;2023-02-14T12:53:23;1254.83;;;689.63;;
74459;SDS011;62902;48.854;9.292;2023-02-14T13:01:45;1271.35;;;693.03;;
74459;SDS011;62902;48.854;9.292;2023-02-14T13:07:10;1264.93;;;690.10;;
74459;SDS011;62902;48.854;9.292;2023-02-14T13:10:12;1269.32;;;694.30;;
74459;SDS011;62902;48.854;9.292;2023-02-14T13:12:45;1260.75;;;689.03;;
74459;SDS011;62902;48.854;9.292;2023-02-14T13:15:17;1265.43;;;692.03;;
74459;SDS011;62902;48.854;9.292;2023-02-14T13:20:55;1282.22;;;698.15;;
74459;SDS011;62902;48.854;9.292;2023-02-14T13:23:24;1278.77;;;694.63;;
74459;SDS011;62902;48.854;9.292;2023-02-14T13:25:56;1275.85;;;692.70;;
74459;SDS011;62902;48.854;9.292;2023-02-14T13:28:27;1275.15;;;692.35;;
74459;SDS011;62902;48.854;9.292;2023-02-14T13:30:54;1276.97;;;694.63;;
74459;SDS011;62902;48.854;9.292;2023-02-14T13:33:26;1281.53;;;692.27;;
74459;SDS011;62902;48.854;9.292;2023-02-14T13:36:01;1279.97;;;691.38;;
74459;SDS011;62902;48.854;9.292;2023-02-14T13:38:29;1279.38;;;692.08;;
74459;SDS011;62902;48.854;9.292;2023-02-14T13:40:57;1278.57;;;690.00;;
74459;SDS011;62902;48.854;9.292;2023-02-14T13:46:11;1282.07;;;692.47;;
74459;SDS011;62902;48.854;9.292;2023-02-14T13:48:38;1280.07;;;692.50;;
74459;SDS011;62902;48.854;9.292;2023-02-14T13:51:06;1281.95;;;693.88;;
74459;SDS011;62902;48.854;9.292;2023-02-14T13:53:37;1277.97;;;690.95;;
74459;SDS011;62902;48.854;9.292;2023-02-14T13:58:46;1280.05;;;693.75;;
74459;SDS011;62902;48.854;9.292;2023-02-14T14:17:40;1287.10;;;698.25;;
74459;SDS011;62902;48.854;9.292;2023-02-14T14:22:52;1270.53;;;691.13;;
74459;SDS011;62902;48.854;9.292;2023-02-14T14:25:33;1272.07;;;694.97;;
74459;SDS011;62902;48.854;9.292;2023-02-14T14:28:21;1263.03;;;690.73;;
74459;SDS011;62902;48.854;9.292;2023-02-14T14:30:50;1268.88;;;695.97;;
74459;SDS011;62902;48.854;9.292;2023-02-14T14:33:27;1269.23;;;699.03;;
74459;SDS011;62902;48.854;9.292;2023-02-14T14:36:00;1261.93;;;694.30;;
74459;SDS011;62902;48.854;9.292;2023-02-14T14:38:31;1264.53;;;698.78;;
74459;SDS011;62902;48.854;9.292;2023-02-14T14:40:59;1261.00;;;694.28;;
74459;SDS011;62902;48.854;9.292;2023-02-14T14:45:55;1261.93;;;696.97;;
74459;SDS011;62902;48.854;9.292;2023-02-14T14:48:34;1260.17;;;696.00;;
74459;SDS011;62902;48.854;9.292;2023-02-14T14:51:06;1263.38;;;699.25;;
74459;SDS011;62902;48.854;9.292;2023-02-14T14:53:44;1253.95;;;693.70;;
74459;SDS011;62902;48.854;9.292;2023-02-14T14:56:49;1255.95;;;694.80;;
74459;SDS011;62902;48.854;9.292;2023-02-14T14:59:30;1251.95;;;695.03;;
74459;SDS011;62902;48.854;9.292;2023-02-14T15:02:03;1248.53;;;695.53;;
74459;SDS011;62902;48.854;9.292;2023-02-14T15:04:45;1249.25;;;695.80;;
74459;SDS011;62902;48.854;9.292;2023-02-14T15:07:33;1244.35;;;694.63;;
74459;SDS011;62902;48.854;9.292;2023-02-14T15:09:58;1236.07;;;686.53;;
74459;SDS011;62902;48.854;9.292;2023-02-14T15:12:25;1243.00;;;694.25;;
74459;SDS011;62902;48.854;9.292;2023-02-14T15:15:11;1253.77;;;701.63;;
74459;SDS011;62902;48.854;9.292;2023-02-14T15:17:40;1248.07;;;697.97;;
74459;SDS011;62902;48.854;9.292;2023-02-14T15:20:08;1247.20;;;698.45;;
74459;SDS011;62902;48.854;9.292;2023-02-14T15:22:43;1239.13;;;692.38;;
74459;SDS011;62902;48.854;9.292;2023-02-14T15:25:15;1257.53;;;705.75;;
74459;SDS011;62902;48.854;9.292;2023-02-14T15:27:51;1240.93;;;695.78;;
74459;SDS011;62902;48.854;9.292;2023-02-14T15:33:05;1239.65;;;696.22;;
74459;SDS011;62902;48.854;9.292;2023-02-14T15:35:33;1235.93;;;694.53;;
74459;SDS011;62902;48.854;9.292;2023-02-14T15:38:03;1236.40;;;696.45;;
74459;SDS011;62902;48.854;9.292;2023-02-14T15:40:32;1233.93;;;697.75;;
74459;SDS011;62902;48.854;9.292;2023-02-14T15:45:48;1243.00;;;702.45;;
74459;SDS011;62902;48.854;9.292;2023-02-14T15:48:37;1240.10;;;701.37;;
74459;SDS011;62902;48.854;9.292;2023-02-14T15:51:13;1230.20;;;698.35;;
74459;SDS011;62902;48.854;9.292;2023-02-14T15:54:03;1225.63;;;697.28;;
74459;SDS011;62902;48.854;9.292;2023-02-14T15:59:20;1222.37;;;696.53;;
74459;SDS011;62902;48.854;9.292;2023-02-14T16:01:56;1220.97;;;695.53;;
74459;SDS011;62902;48.854;9.292;2023-02-14T16:04:24;1221.53;;;697.72;;
74459;SDS011;62902;48.854;9.292;2023-02-14T16:09:48;1212.75;;;695.53;;
74459;SDS011;62902;48.854;9.292;2023-02-14T16:12:27;1210.37;;;697.53;;
74459;SDS011;62902;48.854;9.292;2023-02-14T16:17:46;1204.00;;;696.17;;
74459;SDS011;62902;48.854;9.292;2023-02-14T16:20:25;1201.32;;;697.50;;
74459;SDS011;62902;48.854;9.292;2023-02-14T16:25:53;1188.80;;;692.70;;
74459;SDS011;62902;48.854;9.292;2023-02-14T16:28:22;1198.33;;;699.83;;
74459;SDS011;62902;48.854;9.292;2023-02-14T16:30:54;1186.93;;;693.47;;
74459;SDS011;62902;48.854;9.292;2023-02-14T16:33:23;1190.40;;;698.38;;
74459;SDS011;62902;48.854;9.292;2023-02-14T16:35:51;1181.75;;;693.95;;
74459;SDS011;62902;48.854;9.292;2023-02-14T16:38:19;1180.55;;;695.35;;
74459;SDS011;62902;48.854;9.292;2023-02-14T16:40:47;1174.85;;;693.60;;